createdAt,value
2022-10-16T00:00:10.715Z,56.42
2022-10-16T00:02:38.217Z,56.58
2022-10-16T00:05:06.363Z,56.28
2022-10-16T00:07:33.655Z,56.32
2022-10-16T00:10:00.925Z,56.43
2022-10-16T00:12:29.616Z,56.41
2022-10-16T00:14:56.840Z,56.38
2022-10-16T00:17:24.224Z,56.66
2022-10-16T00:19:51.714Z,56.47
2022-10-16T00:22:37.329Z,56.63
2022-10-16T00:25:05.465Z,56.57
2022-10-16T00:27:34.736Z,56.55
2022-10-16T00:30:02.179Z,56.74
2022-10-16T00:32:29.532Z,56.79
2022-10-16T00:34:56.930Z,56.79
2022-10-16T00:37:24.213Z,56.94
2022-10-16T00:39:51.543Z,56.96
2022-10-16T00:42:20.111Z,57.01
2022-10-16T00:44:53.542Z,57.08
2022-10-16T00:47:27.456Z,57.09
2022-10-16T00:50:03.145Z,56.88
2022-10-16T00:52:31.147Z,57.10
2022-10-16T00:54:59.673Z,57.01
2022-10-16T00:57:27.423Z,57.18
2022-10-16T00:59:56.363Z,57.02
2022-10-16T01:02:24.031Z,57.20
2022-10-16T01:04:54.289Z,57.14
2022-10-16T01:07:41.253Z,57.17
2022-10-16T01:10:24.387Z,57.27
2022-10-16T01:12:59.036Z,57.27
2022-10-16T01:15:34.964Z,57.31
2022-10-16T01:18:14.840Z,57.32
2022-10-16T01:20:51.617Z,57.28
2022-10-16T01:23:42.971Z,57.63
2022-10-16T01:26:32.080Z,57.94
2022-10-16T01:29:09.892Z,57.94
2022-10-16T01:31:41.796Z,57.68
2022-10-16T01:34:16.418Z,57.92
2022-10-16T01:36:49.696Z,58.02
2022-10-16T01:39:24.057Z,58.08
2022-10-16T01:42:01.833Z,58.18
2022-10-16T01:44:35.523Z,58.37
2022-10-16T01:47:04.244Z,58.50
2022-10-16T01:49:38.649Z,58.59
2022-10-16T01:52:12.248Z,58.69
2022-10-16T01:54:44.552Z,58.73
2022-10-16T01:57:17.033Z,58.90
2022-10-16T01:59:51.744Z,58.87
2022-10-16T02:02:23.641Z,58.71
2022-10-16T02:05:00.397Z,58.91
2022-10-16T02:07:28.298Z,58.95
2022-10-16T02:09:56.368Z,58.92
2022-10-16T02:12:30.882Z,58.69
2022-10-16T02:14:59.841Z,58.93
2022-10-16T02:17:28.528Z,59.18
2022-10-16T02:19:58.845Z,59.22
2022-10-16T02:22:33.684Z,59.04
2022-10-16T02:25:09.340Z,59.08
2022-10-16T02:27:46.570Z,59.31
2022-10-16T02:30:24.424Z,59.05
2022-10-16T02:32:53.811Z,59.07
2022-10-16T02:35:23.790Z,59.06
2022-10-16T02:37:53.300Z,59.24
2022-10-16T02:40:24.432Z,59.22
2022-10-16T02:42:54.608Z,59.31
2022-10-16T02:45:26.141Z,59.39
2022-10-16T02:47:53.616Z,59.27
2022-10-16T02:50:21.137Z,59.52
2022-10-16T02:52:48.414Z,59.35
2022-10-16T02:55:16.083Z,59.37
2022-10-16T02:57:43.605Z,59.43
2022-10-16T03:00:15.538Z,59.44
2022-10-16T03:02:44.505Z,59.71
2022-10-16T03:05:12.373Z,59.60
2022-10-16T03:07:39.729Z,59.49
2022-10-16T03:10:08.434Z,59.50
2022-10-16T03:12:36.057Z,59.42
2022-10-16T03:15:04.310Z,59.48
2022-10-16T03:17:33.231Z,59.61
2022-10-16T03:20:01.906Z,59.42
2022-10-16T03:22:29.201Z,59.60
2022-10-16T03:24:56.539Z,59.50
2022-10-16T03:27:24.074Z,59.71
2022-10-16T03:29:51.730Z,59.73
2022-10-16T03:32:19.464Z,59.78
2022-10-16T03:34:46.849Z,59.62
2022-10-16T03:37:15.592Z,59.86
2022-10-16T03:39:42.817Z,59.87
2022-10-16T03:42:10.111Z,59.98
2022-10-16T03:44:37.476Z,60.16
2022-10-16T03:47:04.694Z,60.22
2022-10-16T03:49:31.928Z,60.45
2022-10-16T03:51:59.351Z,60.48
2022-10-16T03:54:27.988Z,60.46
2022-10-16T03:56:55.293Z,60.56
2022-10-16T03:59:22.501Z,60.83
2022-10-16T04:01:49.763Z,60.74
2022-10-16T04:04:17.127Z,60.79
2022-10-16T04:06:44.356Z,60.99
2022-10-16T04:09:11.635Z,61.08
2022-10-16T04:11:40.379Z,60.97
2022-10-16T04:14:07.654Z,61.25
2022-10-16T04:16:34.937Z,61.46
2022-10-16T04:19:02.296Z,61.31
2022-10-16T04:21:29.555Z,61.37
2022-10-16T04:23:56.811Z,61.58
2022-10-16T04:26:24.190Z,61.46
2022-10-16T04:28:52.851Z,61.55
2022-10-16T04:31:20.259Z,61.73
2022-10-16T04:33:47.855Z,61.62
2022-10-16T04:36:15.159Z,61.85
2022-10-16T04:38:42.423Z,61.79
2022-10-16T04:41:09.783Z,62.00
2022-10-16T04:43:37.161Z,62.12
2022-10-16T04:46:06.085Z,62.06
2022-10-16T04:48:33.738Z,62.14
2022-10-16T04:51:01.096Z,62.05
2022-10-16T04:53:28.441Z,62.13
2022-10-16T04:55:55.981Z,62.21
2022-10-16T04:58:23.280Z,62.13
2022-10-16T05:00:50.595Z,62.43
2022-10-16T05:03:19.308Z,62.38
2022-10-16T05:05:48.212Z,62.51
2022-10-16T05:08:16.899Z,62.47
2022-10-16T05:10:45.845Z,62.35
2022-10-16T05:13:13.457Z,62.83
2022-10-16T05:15:41.006Z,63.02
2022-10-16T05:18:09.576Z,63.15
2022-10-16T05:20:38.190Z,63.14
2022-10-16T05:23:05.460Z,63.20
2022-10-16T05:25:32.883Z,63.23
2022-10-16T05:28:00.198Z,63.28
2022-10-16T05:30:27.507Z,63.35
2022-10-16T05:32:54.939Z,63.70
2022-10-16T05:35:22.755Z,63.53
2022-10-16T05:37:51.419Z,63.54
2022-10-16T05:40:18.750Z,63.61
2022-10-16T05:42:46.644Z,63.70
2022-10-16T05:45:13.944Z,63.45
2022-10-16T05:47:41.351Z,63.28
2022-10-16T05:50:09.695Z,63.41
2022-10-16T05:52:37.156Z,63.18
2022-10-16T05:55:07.068Z,63.08
2022-10-16T05:57:34.445Z,63.11
2022-10-16T06:00:01.743Z,62.98
2022-10-16T06:02:29.682Z,62.94
2022-10-16T06:04:56.941Z,62.77
2022-10-16T06:07:25.386Z,62.98
2022-10-16T06:09:54.034Z,62.93
2022-10-16T06:12:22.608Z,62.84
2022-10-16T06:14:50.137Z,62.85
2022-10-16T06:17:17.528Z,62.89
2022-10-16T06:19:44.889Z,62.79
2022-10-16T06:22:12.359Z,62.80
2022-10-16T06:24:39.678Z,62.89
2022-10-16T06:27:07.695Z,63.00
2022-10-16T06:29:36.453Z,62.81
2022-10-16T06:32:03.853Z,62.79
2022-10-16T06:34:31.231Z,62.86
2022-10-16T06:36:58.459Z,62.74
2022-10-16T06:39:25.701Z,62.78
2022-10-16T06:41:52.965Z,62.57
2022-10-16T06:44:20.287Z,62.70
2022-10-16T06:46:49.405Z,62.49
2022-10-16T06:49:22.377Z,62.51
2022-10-16T06:51:50.116Z,62.57
2022-10-16T06:54:18.821Z,62.50
2022-10-16T06:56:46.258Z,62.37
2022-10-16T06:59:13.502Z,62.49
2022-10-16T07:01:40.973Z,62.17
2022-10-16T07:04:09.576Z,62.13
2022-10-16T07:06:36.814Z,62.22
2022-10-16T07:09:08.156Z,62.03
2022-10-16T07:11:36.067Z,62.26
2022-10-16T07:14:04.014Z,62.25
2022-10-16T07:16:33.904Z,62.25
2022-10-16T07:19:03.395Z,62.13
2022-10-16T07:21:36.854Z,61.98
2022-10-16T07:24:07.988Z,62.13
2022-10-16T07:26:37.584Z,61.80
2022-10-16T07:29:05.492Z,61.61
2022-10-16T07:31:33.111Z,61.19
2022-10-16T07:34:01.275Z,61.33
2022-10-16T07:36:28.975Z,60.63
2022-10-16T07:38:59.781Z,60.54
2022-10-16T07:41:29.075Z,60.48
2022-10-16T07:44:00.861Z,60.08
2022-10-16T07:46:28.874Z,60.29
2022-10-16T07:48:56.326Z,59.95
2022-10-16T07:51:26.053Z,60.44
2022-10-16T07:53:54.052Z,60.17
2022-10-16T07:56:23.432Z,60.22
2022-10-16T07:58:51.900Z,60.35
2022-10-16T08:01:20.328Z,60.18
2022-10-16T08:03:50.959Z,60.16
2022-10-16T08:06:23.392Z,59.63
2022-10-16T08:08:54.321Z,59.40
2022-10-16T08:11:23.924Z,59.41
2022-10-16T08:13:51.221Z,58.95
2022-10-16T08:16:18.928Z,58.86
2022-10-16T08:18:46.750Z,57.76
2022-10-16T08:21:20.365Z,57.72
2022-10-16T08:23:52.969Z,57.11
2022-10-16T08:26:27.658Z,56.84
2022-10-16T08:28:55.566Z,56.92
2022-10-16T08:31:23.862Z,56.62
2022-10-16T08:33:52.219Z,56.08
2022-10-16T08:36:19.528Z,55.29
2022-10-16T08:38:51.154Z,55.24
2022-10-16T08:42:07.992Z,54.34
2022-10-16T08:45:16.493Z,53.60
2022-10-16T08:47:54.844Z,53.63
2022-10-16T08:50:28.803Z,51.89
2022-10-16T08:52:57.801Z,50.85
2022-10-16T08:55:38.171Z,50.20
2022-10-16T08:58:14.759Z,50.58
2022-10-16T09:00:47.572Z,49.92
2022-10-16T09:03:33.926Z,50.07
2022-10-16T09:06:33.373Z,49.65
2022-10-16T09:09:29.836Z,49.02
2022-10-16T09:12:06.969Z,49.04
2022-10-16T09:14:57.321Z,48.46
2022-10-16T09:17:40.311Z,46.92
2022-10-16T09:20:28.548Z,45.93
2022-10-16T09:23:13.807Z,44.25
2022-10-16T09:25:48.650Z,44.41
2022-10-16T09:28:17.400Z,43.78
2022-10-16T09:30:47.298Z,41.93
2022-10-16T09:33:16.851Z,40.54
2022-10-16T09:35:47.410Z,40.88
2022-10-16T09:38:30.143Z,40.70
2022-10-16T09:41:03.229Z,42.54
2022-10-16T09:43:40.442Z,42.80
2022-10-16T09:46:23.439Z,42.71
2022-10-16T09:48:55.084Z,43.55
2022-10-16T09:51:27.764Z,43.42
2022-10-16T09:54:01.402Z,43.50
2022-10-16T09:56:33.303Z,42.13
2022-10-16T09:59:09.845Z,42.25
2022-10-16T10:01:41.858Z,41.92
2022-10-16T10:04:11.145Z,41.43
2022-10-16T10:06:45.362Z,41.16
2022-10-16T10:09:21.064Z,41.02
2022-10-16T10:11:55.379Z,41.62
2022-10-16T10:14:31.687Z,40.38
2022-10-16T10:17:17.878Z,40.54
2022-10-16T10:19:54.957Z,41.17
2022-10-16T10:22:28.420Z,40.50
2022-10-16T10:25:01.343Z,40.77
2022-10-16T10:27:45.397Z,40.62
2022-10-16T10:30:21.771Z,41.17
2022-10-16T10:33:13.054Z,41.56
2022-10-16T10:35:51.914Z,41.66
2022-10-16T10:38:45.874Z,42.22
2022-10-16T10:41:38.227Z,41.95
2022-10-16T10:44:20.399Z,42.84
2022-10-16T10:46:55.413Z,42.78
2022-10-16T10:49:49.740Z,42.84
2022-10-16T10:52:53.110Z,43.10
2022-10-16T10:55:35.810Z,42.40
2022-10-16T10:58:32.296Z,41.30
2022-10-16T11:01:09.424Z,41.21
2022-10-16T11:04:12.401Z,39.93
2022-10-16T11:06:47.842Z,37.91
2022-10-16T11:09:23.659Z,36.80
2022-10-16T11:12:00.646Z,35.70
2022-10-16T11:14:35.567Z,35.51
2022-10-16T11:17:09.535Z,35.91
2022-10-16T11:19:45.012Z,35.66
2022-10-16T11:22:22.123Z,35.11
2022-10-16T11:24:55.736Z,35.53
2022-10-16T11:27:40.333Z,35.07
2022-10-16T11:30:19.425Z,35.05
2022-10-16T11:33:18.754Z,34.83
2022-10-16T11:35:54.529Z,35.07
2022-10-16T11:38:33.831Z,35.49
2022-10-16T11:41:19.661Z,36.22
2022-10-16T11:44:01.512Z,36.76
2022-10-16T11:46:33.294Z,36.88
2022-10-16T11:49:13.829Z,36.73
2022-10-16T11:51:49.671Z,37.04
2022-10-16T11:54:29.392Z,37.84
2022-10-16T11:57:08.269Z,36.80
2022-10-16T11:59:46.453Z,38.08
2022-10-16T12:02:38.218Z,38.00
2022-10-16T12:05:21.347Z,37.17
2022-10-16T12:08:03.984Z,36.81
2022-10-16T12:13:35.282Z,36.93
2022-10-16T12:16:23.488Z,36.09
2022-10-16T12:19:10.856Z,36.31
2022-10-16T12:21:38.553Z,37.12
2022-10-16T12:24:07.520Z,36.93
2022-10-16T12:26:42.727Z,37.18
2022-10-16T12:29:24.843Z,37.67
2022-10-16T12:31:58.445Z,37.73
2022-10-16T12:34:35.212Z,36.38
2022-10-16T12:37:15.729Z,36.00
2022-10-16T12:39:43.574Z,35.11
2022-10-16T12:42:34.666Z,36.00
2022-10-16T12:45:03.051Z,35.41
2022-10-16T12:47:52.379Z,35.22
2022-10-16T12:50:34.179Z,34.56
2022-10-16T12:53:04.375Z,35.08
2022-10-16T12:55:46.794Z,35.07
2022-10-16T12:58:45.657Z,34.94
2022-10-16T13:01:28.486Z,35.62
2022-10-16T13:04:41.391Z,34.46
2022-10-16T13:07:41.994Z,34.44
2022-10-16T13:10:24.473Z,34.77
2022-10-16T13:13:41.719Z,34.51
2022-10-16T13:16:22.228Z,34.81
2022-10-16T13:19:07.647Z,34.73
2022-10-16T13:21:50.288Z,34.55
2022-10-16T13:24:48.804Z,35.47
2022-10-16T13:27:33.975Z,34.99
2022-10-16T13:30:14.916Z,35.50
2022-10-16T13:32:47.545Z,35.45
2022-10-16T13:35:24.942Z,35.17
2022-10-16T13:37:52.539Z,35.25
2022-10-16T13:40:24.497Z,34.45
2022-10-16T13:42:54.124Z,34.64
2022-10-16T13:45:26.218Z,34.42
2022-10-16T13:48:04.547Z,35.54
2022-10-16T13:50:32.298Z,34.90
2022-10-16T13:53:07.033Z,35.06
2022-10-16T13:55:34.814Z,36.00
2022-10-16T13:58:13.197Z,36.01
2022-10-16T14:00:55.556Z,35.57
2022-10-16T14:03:23.257Z,35.87
2022-10-16T14:05:54.633Z,36.05
2022-10-16T14:08:23.354Z,36.36
2022-10-16T14:10:55.028Z,36.21
2022-10-16T14:13:32.401Z,35.67
2022-10-16T14:16:08.565Z,35.97
2022-10-16T14:18:40.073Z,36.30
2022-10-16T14:21:15.693Z,36.11
2022-10-16T14:23:44.511Z,36.77
2022-10-16T14:26:18.562Z,36.59
2022-10-16T14:28:49.198Z,36.83
2022-10-16T14:31:31.604Z,36.69
2022-10-16T14:34:00.196Z,36.71
2022-10-16T14:36:29.577Z,37.25
2022-10-16T14:39:05.003Z,36.63
2022-10-16T14:41:41.801Z,37.11
2022-10-16T14:44:13.790Z,37.02
2022-10-16T14:46:45.355Z,37.22
2022-10-16T14:49:20.995Z,36.87
2022-10-16T14:51:49.162Z,36.76
2022-10-16T14:54:18.688Z,37.04
2022-10-16T14:56:51.204Z,36.99
2022-10-16T14:59:33.226Z,37.16
2022-10-16T15:02:17.251Z,37.40
2022-10-16T15:04:44.550Z,37.63
2022-10-16T15:07:11.948Z,37.88
2022-10-16T15:09:39.320Z,37.77
2022-10-16T15:12:07.118Z,37.79
2022-10-16T15:14:34.526Z,38.05
2022-10-16T15:17:03.477Z,38.11
2022-10-16T15:19:30.897Z,38.31
2022-10-16T15:21:58.434Z,38.58
2022-10-16T15:24:28.617Z,38.73
2022-10-16T15:26:56.625Z,38.92
2022-10-16T15:29:24.205Z,39.11
2022-10-16T15:31:51.804Z,39.24
2022-10-16T15:34:24.780Z,39.30
2022-10-16T15:36:52.299Z,39.50
2022-10-16T15:39:23.783Z,39.53
2022-10-16T15:41:55.158Z,39.87
2022-10-16T15:44:30.691Z,39.98
2022-10-16T15:46:58.013Z,40.00
2022-10-16T15:49:26.635Z,40.06
2022-10-16T15:51:56.283Z,40.26
2022-10-16T15:54:23.862Z,40.36
2022-10-16T15:56:51.187Z,40.33
2022-10-16T15:59:18.513Z,40.57
2022-10-16T16:01:45.879Z,40.53
2022-10-16T16:04:31.893Z,40.77
2022-10-16T16:07:02.706Z,40.98
2022-10-16T16:09:30.727Z,40.97
2022-10-16T16:12:01.346Z,40.91
2022-10-16T16:14:29.422Z,41.20
2022-10-16T16:16:56.893Z,41.22
2022-10-16T16:19:24.524Z,41.20
2022-10-16T16:21:52.216Z,41.56
2022-10-16T16:24:21.222Z,41.91
2022-10-16T16:26:48.502Z,42.35
2022-10-16T16:29:17.010Z,42.00
2022-10-16T16:31:44.333Z,42.08
2022-10-16T16:34:11.682Z,42.54
2022-10-16T16:36:39.911Z,42.77
2022-10-16T16:39:08.450Z,42.92
2022-10-16T16:41:37.124Z,43.09
2022-10-16T16:44:08.401Z,43.84
2022-10-16T16:46:35.888Z,43.71
2022-10-16T16:49:04.183Z,43.44
2022-10-16T16:51:31.502Z,43.89
2022-10-16T16:53:59.001Z,44.15
2022-10-16T16:56:27.253Z,44.22
2022-10-16T16:58:58.038Z,44.32
2022-10-16T17:01:29.363Z,44.91
2022-10-16T17:03:59.095Z,44.92
2022-10-16T17:06:30.704Z,45.35
2022-10-16T17:09:01.952Z,45.35
2022-10-16T17:11:29.452Z,45.46
2022-10-16T17:14:00.056Z,45.33
2022-10-16T17:16:31.696Z,46.02
2022-10-16T17:19:02.052Z,45.68
2022-10-16T17:21:30.717Z,45.76
2022-10-16T17:23:58.183Z,46.25
2022-10-16T17:26:26.301Z,46.34
2022-10-16T17:28:55.751Z,46.54
2022-10-16T17:31:29.022Z,46.64
2022-10-16T17:33:58.060Z,46.33
2022-10-16T17:36:26.195Z,46.73
2022-10-16T17:38:53.543Z,46.66
2022-10-16T17:41:24.291Z,46.65
2022-10-16T17:43:52.240Z,47.64
2022-10-16T17:46:23.548Z,47.76
2022-10-16T17:48:54.600Z,47.68
2022-10-16T17:51:25.551Z,47.60
2022-10-16T17:53:56.415Z,47.65
2022-10-16T17:56:25.396Z,48.01
2022-10-16T17:58:55.642Z,48.30
2022-10-16T18:01:26.813Z,48.40
2022-10-16T18:03:58.416Z,48.10
2022-10-16T18:06:27.504Z,48.44
2022-10-16T18:08:57.846Z,48.43
2022-10-16T18:11:26.200Z,48.94
2022-10-16T18:13:54.858Z,49.00
2022-10-16T18:16:23.901Z,49.13
2022-10-16T18:18:51.957Z,48.51
2022-10-16T18:21:21.082Z,49.01
2022-10-16T18:23:51.930Z,49.27
2022-10-16T18:26:21.328Z,49.47
2022-10-16T18:28:49.045Z,49.80
2022-10-16T18:31:17.694Z,49.20
2022-10-16T18:33:50.689Z,49.45
2022-10-16T18:36:22.587Z,49.35
2022-10-16T18:38:50.319Z,49.54
2022-10-16T18:41:18.720Z,49.93
2022-10-16T18:43:46.081Z,49.93
2022-10-16T18:46:15.901Z,49.56
2022-10-16T18:48:43.999Z,49.38
2022-10-16T18:51:16.277Z,49.60
2022-10-16T18:53:47.035Z,49.64
2022-10-16T18:56:16.923Z,49.23
2022-10-16T18:58:48.283Z,49.46
2022-10-16T19:01:22.209Z,49.48
2022-10-16T19:03:55.280Z,49.35
2022-10-16T19:06:22.870Z,49.27
2022-10-16T19:08:51.763Z,49.78
2022-10-16T19:11:21.826Z,49.58
2022-10-16T19:13:50.099Z,50.13
2022-10-16T19:16:21.374Z,50.20
2022-10-16T19:18:51.849Z,49.88
2022-10-16T19:21:20.086Z,49.72
2022-10-16T19:23:53.129Z,49.62
2022-10-16T19:26:21.912Z,50.30
2022-10-16T19:28:50.827Z,50.06
2022-10-16T19:31:20.993Z,50.47
2022-10-16T19:33:52.993Z,50.05
2022-10-16T19:36:23.690Z,50.62
2022-10-16T19:38:56.787Z,50.37
2022-10-16T19:41:25.738Z,50.96
2022-10-16T19:43:54.028Z,50.97
2022-10-16T19:46:24.388Z,51.06
2022-10-16T19:48:56.410Z,50.54
2022-10-16T19:51:24.594Z,50.47
2022-10-16T19:53:57.531Z,50.92
2022-10-16T19:56:27.601Z,50.63
2022-10-16T19:58:57.332Z,50.66
2022-10-16T20:01:27.210Z,50.56
2022-10-16T20:03:54.820Z,50.89
2022-10-16T20:06:22.617Z,51.39
2022-10-16T20:08:52.257Z,50.84
2022-10-16T20:11:23.365Z,50.86
2022-10-16T20:13:51.362Z,50.83
2022-10-16T20:16:19.933Z,51.21
2022-10-16T20:18:49.996Z,51.02
2022-10-16T20:21:20.726Z,51.02
2022-10-16T20:23:49.070Z,51.18
2022-10-16T20:26:17.427Z,51.28
2022-10-16T20:28:46.403Z,51.50
2022-10-16T20:31:18.325Z,51.52
2022-10-16T20:33:45.684Z,51.08
2022-10-16T20:36:14.460Z,51.13
2022-10-16T20:38:43.820Z,51.00
2022-10-16T20:41:12.371Z,51.27
2022-10-16T20:46:16.590Z,51.52
2022-10-16T20:48:44.782Z,51.72
2022-10-16T20:51:14.881Z,51.28
2022-10-16T20:53:42.507Z,51.49
2022-10-16T20:56:10.101Z,51.22
2022-10-16T20:58:37.449Z,51.71
2022-10-16T21:01:07.124Z,51.53
2022-10-16T21:03:36.445Z,51.63
2022-10-16T21:06:05.364Z,51.74
2022-10-16T21:08:36.366Z,51.88
2022-10-16T21:11:12.120Z,52.09
2022-10-16T21:13:40.098Z,52.24
2022-10-16T21:16:08.389Z,52.05
2022-10-16T21:18:43.337Z,51.91
2022-10-16T21:21:20.093Z,52.14
2022-10-16T21:23:47.938Z,52.06
2022-10-16T21:26:15.607Z,51.83
2022-10-16T21:28:43.047Z,51.74
2022-10-16T21:31:18.733Z,51.49
2022-10-16T21:33:48.654Z,51.69
2022-10-16T21:36:19.119Z,51.61
2022-10-16T21:41:22.767Z,51.79
2022-10-16T21:43:51.560Z,51.81
2022-10-16T21:46:22.725Z,51.48
2022-10-16T21:48:53.464Z,51.71
2022-10-16T21:51:20.814Z,51.99
2022-10-16T21:53:48.047Z,51.49
2022-10-16T21:56:17.563Z,51.98
2022-10-16T21:58:45.972Z,51.78
2022-10-16T22:01:15.705Z,52.24
2022-10-16T22:03:43.799Z,52.14
2022-10-16T22:06:16.059Z,52.74
2022-10-16T22:08:45.405Z,52.40
2022-10-16T22:11:18.483Z,52.70
2022-10-16T22:13:52.639Z,53.26
2022-10-16T22:16:25.689Z,53.02
2022-10-16T22:18:54.283Z,52.86
2022-10-16T22:21:24.337Z,53.22
2022-10-16T22:23:51.631Z,53.43
2022-10-16T22:26:19.055Z,53.51
2022-10-16T22:28:46.428Z,53.59
2022-10-16T22:31:14.981Z,53.30
2022-10-16T22:33:43.607Z,53.24
2022-10-16T22:36:13.979Z,53.32
2022-10-16T22:38:42.773Z,53.72
2022-10-16T22:41:13.361Z,53.32
2022-10-16T22:43:44.020Z,53.54
2022-10-16T22:46:15.966Z,53.27
2022-10-16T22:48:43.865Z,53.43
2022-10-16T22:51:16.676Z,53.36
2022-10-16T22:53:47.082Z,53.30
2022-10-16T22:56:15.731Z,53.51
2022-10-16T22:58:43.937Z,53.17
2022-10-16T23:01:14.992Z,53.68
2022-10-16T23:03:42.477Z,53.58
2022-10-16T23:06:10.083Z,53.42
2022-10-16T23:08:37.532Z,53.08
2022-10-16T23:11:08.694Z,53.24
2022-10-16T23:13:43.480Z,53.32
2022-10-16T23:16:14.858Z,53.38
2022-10-16T23:18:43.170Z,52.96
2022-10-16T23:21:16.583Z,53.68
2022-10-16T23:23:44.542Z,53.82
2022-10-16T23:26:16.970Z,53.74
2022-10-16T23:28:44.858Z,54.01
2022-10-16T23:31:13.741Z,53.61
2022-10-16T23:33:41.918Z,53.96
2022-10-16T23:36:12.315Z,53.43
2022-10-16T23:38:39.873Z,53.50
2022-10-16T23:41:07.589Z,53.37
2022-10-16T23:43:36.464Z,53.31
2022-10-16T23:46:05.278Z,53.91
2022-10-16T23:48:32.616Z,54.25
2022-10-16T23:51:00.292Z,54.35
2022-10-16T23:53:27.627Z,54.12
2022-10-16T23:55:54.965Z,54.44
2022-10-16T23:58:22.474Z,54.65
